Time;durP1;ratioP1;P1;durP2;ratioP2;P2;SDS_P1;SDS_P2;PMS_P1;PMS_P2;Temp;Humidity;BMP_temperature;BMP_pressure;BME280_temperature;BME280_humidity;BME280_pressure;Samples;Min_cycle;Max_cycle;Signal;HPM_P1;HPM_P2
2023/06/11 00:00:01;;;;;;;9.70;2.17;;;;;;;13.83;100.00;101418.81;7381177;19;20465;-43
2023/06/11 00:02:33;;;;;;;7.30;2.27;;;;;;;13.76;100.00;101428.09;7409965;19;20472;-44
2023/06/11 00:05:03;;;;;;;5.70;1.80;;;;;;;13.76;100.00;101422.91;7381850;19;20411;-44
2023/06/11 00:07:34;;;;;;;8.40;2.00;;;;;;;13.73;100.00;101425.34;7406588;19;20413;-44
2023/06/11 00:10:04;;;;;;;6.50;1.90;;;;;;;13.73;100.00;101427.94;7380674;19;20452;-42
2023/06/11 00:12:34;;;;;;;8.33;2.43;;;;;;;13.63;100.00;101426.69;7405737;19;20486;-43
2023/06/11 00:15:07;;;;;;;7.63;2.03;;;;;;;13.56;100.00;101428.19;7382438;19;20504;-44
2023/06/11 00:17:37;;;;;;;5.57;2.00;;;;;;;13.57;100.00;101435.13;7404528;19;20401;-44
2023/06/11 00:20:11;;;;;;;7.43;1.77;;;;;;;13.53;100.00;101430.63;7378842;19;20537;-44
2023/06/11 00:22:41;;;;;;;5.43;1.77;;;;;;;13.47;100.00;101432.97;7405869;19;20427;-44
2023/06/11 00:25:12;;;;;;;6.80;2.00;;;;;;;13.45;100.00;101434.59;7379990;19;20449;-43
2023/06/11 00:27:42;;;;;;;5.40;1.77;;;;;;;13.39;100.00;101426.56;7404292;19;20428;-44
2023/06/11 00:30:16;;;;;;;8.10;2.20;;;;;;;13.34;100.00;101442.81;7379406;19;20494;-43
2023/06/11 00:32:46;;;;;;;5.23;1.97;;;;;;;13.33;100.00;101441.03;7407001;19;20953;-43
2023/06/11 00:35:16;;;;;;;8.23;1.90;;;;;;;13.27;100.00;101438.19;7378527;19;20459;-44
2023/06/11 00:37:47;;;;;;;8.30;2.30;;;;;;;13.25;100.00;101445.03;7403384;19;20403;-43
2023/06/11 00:40:16;;;;;;;8.40;2.50;;;;;;;13.21;100.00;101440.53;7376104;19;20457;-44
2023/06/11 00:42:49;;;;;;;6.57;1.97;;;;;;;13.17;100.00;101442.13;7402501;19;20420;-44
2023/06/11 00:45:22;;;;;;;5.70;1.80;;;;;;;13.19;100.00;101448.22;7378105;19;20507;-44
2023/06/11 00:47:51;;;;;;;3.83;1.60;;;;;;;13.15;100.00;101453.22;7401707;19;20414;-44
2023/06/11 00:50:21;;;;;;;5.00;2.00;;;;;;;13.09;100.00;101454.72;7376671;19;20544;-44
2023/06/11 00:52:51;;;;;;;8.30;3.07;;;;;;;13.05;100.00;101463.22;7403245;19;21007;-43
2023/06/11 00:55:21;;;;;;;4.97;1.67;;;;;;;13.04;100.00;101466.63;7378899;19;20478;-44
2023/06/11 00:57:53;;;;;;;9.80;1.70;;;;;;;13.00;100.00;101464.72;7402634;19;20428;-43
2023/06/11 01:00:25;;;;;;;6.00;2.30;;;;;;;13.00;100.00;101469.00;7376893;19;20864;-43
2023/06/11 01:02:59;;;;;;;9.90;2.30;;;;;;;13.00;100.00;101476.78;7403737;19;20450;-43
2023/06/11 01:05:31;;;;;;;9.33;1.93;;;;;;;12.96;100.00;101481.84;7379498;19;20449;-44
2023/06/11 01:08:01;;;;;;;10.53;2.07;;;;;;;12.92;100.00;101481.63;7403578;19;20403;-44
2023/06/11 01:10:31;;;;;;;5.33;2.40;;;;;;;12.95;100.00;101489.53;7378269;19;20531;-44
2023/06/11 01:13:01;;;;;;;6.60;2.47;;;;;;;12.91;100.00;101490.19;7404315;19;20833;-44
2023/06/11 01:15:33;;;;;;;6.13;2.17;;;;;;;12.88;100.00;101500.44;7377729;19;20602;-43
2023/06/11 01:18:08;;;;;;;5.97;2.33;;;;;;;12.86;100.00;101507.25;7405122;19;20423;-44
2023/06/11 01:20:42;;;;;;;7.00;2.20;;;;;;;12.83;100.00;101514.06;7377336;19;20478;-43
2023/06/11 01:23:31;;;;;;;5.20;1.80;;;;;;;12.75;100.00;101507.66;7404541;19;20412;-43
2023/06/11 01:26:21;;;;;;;7.93;2.40;;;;;;;12.73;100.00;101522.25;7382571;19;20509;-44
2023/06/11 01:28:58;;;;;;;5.27;2.00;;;;;;;12.66;100.00;101525.34;7379722;19;20479;-44
2023/06/11 01:31:29;;;;;;;10.67;2.20;;;;;;;12.66;100.00;101530.53;7404246;19;20939;-47
2023/06/11 01:33:59;;;;;;;7.97;2.20;;;;;;;12.67;100.00;101532.34;7378160;19;20410;-43
2023/06/11 01:36:29;;;;;;;4.27;1.80;;;;;;;12.65;100.00;101537.44;7405874;19;20421;-44
2023/06/11 01:39:01;;;;;;;7.43;2.00;;;;;;;12.56;100.00;101535.31;7379762;19;20422;-43
2023/06/11 01:41:30;;;;;;;6.20;2.27;;;;;;;12.54;100.00;101542.13;7403451;19;20407;-42
2023/06/11 01:44:03;;;;;;;6.40;2.00;;;;;;;12.50;100.00;101550.56;7379611;19;20438;-44
2023/06/11 01:46:32;;;;;;;4.70;1.83;;;;;;;12.49;100.00;101547.88;7403174;19;20421;-44
2023/06/11 01:49:02;;;;;;;6.43;2.03;;;;;;;12.45;100.00;101552.03;7380027;19;20405;-44
2023/06/11 01:51:31;;;;;;;9.97;2.50;;;;;;;12.45;100.00;101557.22;7403371;19;20485;-44
2023/06/11 01:54:01;;;;;;;6.10;2.30;;;;;;;12.40;100.00;101548.34;7378779;19;20852;-43
2023/06/11 01:56:32;;;;;;;9.37;4.00;;;;;;;12.37;100.00;101554.25;7404777;19;20489;-42
2023/06/11 01:59:04;;;;;;;6.43;2.57;;;;;;;12.31;100.00;101559.13;7379679;19;20399;-43
2023/06/11 02:01:36;;;;;;;5.73;2.33;;;;;;;12.28;100.00;101572.84;7404073;19;20421;-44
2023/06/11 02:04:06;;;;;;;5.60;2.40;;;;;;;12.26;100.00;101579.63;7377459;19;20406;-44
2023/06/11 02:06:37;;;;;;;9.33;2.33;;;;;;;12.25;100.00;101582.16;7403143;19;20436;-44
2023/06/11 02:09:07;;;;;;;8.30;2.30;;;;;;;12.18;100.00;101580.97;7377790;19;20407;-44
2023/06/11 02:11:36;;;;;;;8.67;2.30;;;;;;;12.15;100.00;101578.22;7404306;19;20414;-46
2023/06/11 02:14:08;;;;;;;10.70;1.90;;;;;;;12.11;100.00;101589.25;7380072;19;20831;-43
2023/06/11 02:16:38;;;;;;;3.83;1.50;;;;;;;11.98;100.00;101598.97;7401399;19;20404;-43
2023/06/11 02:19:08;;;;;;;5.50;2.30;;;;;;;12.23;100.00;101653.63;7380281;19;20406;-42
2023/06/11 02:21:37;;;;;;;19.90;8.33;;;;;;;12.38;100.00;101645.72;7403287;19;20416;-44
2023/06/11 02:24:07;;;;;;;14.93;8.13;;;;;;;12.58;100.00;101675.16;7376834;19;20452;-44
2023/06/11 02:26:37;;;;;;;23.67;13.40;;;;;;;12.79;100.00;101667.53;7404773;19;20441;-44
2023/06/11 02:29:09;;;;;;;56.63;29.33;;;;;;;13.18;100.00;101664.13;7376527;19;20394;-43
2023/06/11 02:31:39;;;;;;;36.10;20.40;;;;;;;12.92;100.00;101626.69;7402329;19;20399;-43
2023/06/11 02:34:08;;;;;;;15.87;8.17;;;;;;;13.04;100.00;101603.03;7380918;19;20441;-43
2023/06/11 02:36:38;;;;;;;22.80;12.20;;;;;;;13.16;100.00;101606.16;7401022;19;20432;-44
2023/06/11 02:39:08;;;;;;;7.60;2.60;;;;;;;12.86;100.00;101572.00;7379073;19;20410;-43
2023/06/11 02:41:37;;;;;;;8.97;3.60;;;;;;;12.62;100.00;101575.25;7407700;19;20424;-46
2023/06/11 02:44:09;;;;;;;8.10;2.80;;;;;;;12.40;100.00;101581.97;7381208;19;20433;-43
2023/06/11 02:46:39;;;;;;;7.23;2.87;;;;;;;12.40;100.00;101602.69;7403580;19;20396;-43
2023/06/11 02:49:09;;;;;;;9.60;2.30;;;;;;;12.32;100.00;101601.44;7378980;19;20417;-44
2023/06/11 02:51:38;;;;;;;7.77;3.60;;;;;;;12.28;100.00;101603.91;7401464;19;20405;-43
2023/06/11 02:54:08;;;;;;;7.63;2.87;;;;;;;12.32;100.00;101622.13;7377545;19;20428;-41
2023/06/11 02:56:37;;;;;;;8.07;3.57;;;;;;;12.29;100.00;101613.44;7403104;19;20421;-44
2023/06/11 02:59:10;;;;;;;8.27;3.67;;;;;;;12.32;100.00;101622.13;7385321;19;20393;-44
2023/06/11 03:01:40;;;;;;;7.73;3.10;;;;;;;12.27;100.00;101625.38;7409160;19;20434;-43
2023/06/11 03:04:10;;;;;;;11.40;3.77;;;;;;;12.33;100.00;101639.44;7385511;19;20406;-44
2023/06/11 03:06:40;;;;;;;5.57;2.97;;;;;;;12.35;100.00;101632.66;7412145;19;20479;-44
2023/06/11 03:09:10;;;;;;;9.53;3.10;;;;;;;12.31;100.00;101644.53;7387961;19;20425;-44
2023/06/11 03:11:39;;;;;;;15.30;3.60;;;;;;;12.38;100.00;101648.31;7409943;19;20408;-44
2023/06/11 03:14:11;;;;;;;8.77;3.27;;;;;;;12.35;100.00;101645.59;7388445;19;20424;-44
2023/06/11 03:16:41;;;;;;;12.80;3.30;;;;;;;12.28;100.00;101653.06;7408931;19;20412;-44
2023/06/11 03:19:10;;;;;;;11.73;3.87;;;;;;;12.23;100.00;101662.28;7389049;19;20403;-44
2023/06/11 03:21:40;;;;;;;13.90;4.50;;;;;;;12.32;100.00;101664.44;7406230;19;20417;-44
2023/06/11 03:24:10;;;;;;;9.87;4.43;;;;;;;12.37;100.00;101662.06;7383289;19;20413;-44
2023/06/11 03:26:40;;;;;;;8.13;3.80;;;;;;;12.43;100.00;101667.53;7407787;19;20480;-44
2023/06/11 03:29:12;;;;;;;10.40;4.20;;;;;;;12.36;100.00;101670.66;7385409;19;20409;-44
2023/06/11 03:31:43;;;;;;;11.60;5.30;;;;;;;12.32;100.00;101679.06;7409478;19;20467;-44
2023/06/11 03:34:13;;;;;;;7.77;3.40;;;;;;;12.33;100.00;101686.00;7387366;19;20421;-43
2023/06/11 03:36:42;;;;;;;11.33;6.00;;;;;;;12.39;100.00;101687.22;7409663;19;20494;-44
2023/06/11 03:39:12;;;;;;;8.33;4.53;;;;;;;12.43;100.00;101688.25;7387092;19;20393;-44
2023/06/11 03:41:42;;;;;;;11.53;5.23;;;;;;;12.44;100.00;101695.19;7408370;19;20420;-44
2023/06/11 03:44:15;;;;;;;11.80;4.63;;;;;;;12.45;100.00;101690.91;7384774;19;20438;-43
2023/06/11 03:46:44;;;;;;;8.10;3.80;;;;;;;12.40;100.00;101693.25;7411337;19;20439;-42
2023/06/11 03:49:14;;;;;;;10.80;4.30;;;;;;;12.41;100.00;101701.09;7387432;19;20401;-44
2023/06/11 03:51:44;;;;;;;8.63;3.90;;;;;;;12.35;100.00;101710.28;7409717;19;20426;-46
2023/06/11 03:54:13;;;;;;;9.70;3.67;;;;;;;12.35;100.00;101710.28;7386928;19;21246;-44
2023/06/11 03:56:43;;;;;;;10.93;4.30;;;;;;;12.33;100.00;101715.38;7407633;19;20510;-44
2023/06/11 03:59:15;;;;;;;13.33;3.80;;;;;;;12.39;100.00;101728.63;7386645;19;20415;-44
2023/06/11 04:01:45;;;;;;;7.17;3.97;;;;;;;12.40;100.00;101720.03;7409011;19;20785;-44
2023/06/11 04:04:14;;;;;;;8.00;4.73;;;;;;;12.37;100.00;101724.19;7385357;19;20520;-44
2023/06/11 04:06:45;;;;;;;9.30;3.40;;;;;;;12.52;100.00;101732.69;7407342;19;20410;-44
2023/06/11 04:09:14;;;;;;;9.67;3.90;;;;;;;12.63;100.00;101727.16;7383784;19;20425;-44
2023/06/11 04:11:44;;;;;;;11.33;5.20;;;;;;;12.66;100.00;101729.88;7407633;19;20411;-44
2023/06/11 04:14:16;;;;;;;10.67;4.40;;;;;;;12.70;100.00;101713.69;7384439;19;20421;-43
2023/06/11 04:16:46;;;;;;;8.40;4.03;;;;;;;12.72;100.00;101721.53;7408346;19;20836;-43
2023/06/11 04:19:15;;;;;;;10.23;4.90;;;;;;;12.84;100.00;101714.38;7383621;19;20422;-44
2023/06/11 04:21:45;;;;;;;9.73;4.17;;;;;;;12.95;100.00;101712.28;7405049;19;20841;-44
2023/06/11 04:24:15;;;;;;;10.87;3.50;;;;;;;12.78;100.00;101695.94;7382355;19;20411;-44
2023/06/11 04:26:46;;;;;;;9.30;4.10;;;;;;;12.76;100.00;101714.00;7405251;19;20411;-44
2023/06/11 04:29:18;;;;;;;10.03;3.87;;;;;;;12.92;100.00;101719.91;7382455;19;20395;-44
2023/06/11 04:31:50;;;;;;;6.80;3.60;;;;;;;12.91;100.00;101707.75;7404455;19;20473;-44
2023/06/11 04:34:20;;;;;;;7.27;3.47;;;;;;;12.86;100.00;101712.72;7379067;19;20473;-43
2023/06/11 04:36:53;;;;;;;34.00;15.97;;;;;;;13.00;100.00;101728.94;7405436;19;20443;-44
2023/06/11 04:39:23;;;;;;;29.30;13.63;;;;;;;12.98;100.00;101738.34;7381054;19;20453;-44
2023/06/11 04:41:53;;;;;;;36.90;18.60;;;;;;;13.00;100.00;101749.66;7406977;19;20407;-44
2023/06/11 04:44:26;;;;;;;22.30;7.57;;;;;;;12.95;100.00;101743.34;7382640;19;20397;-44
2023/06/11 04:46:57;;;;;;;14.53;7.63;;;;;;;12.89;100.00;101750.84;7405193;19;20400;-44
2023/06/11 04:49:27;;;;;;;18.97;8.40;;;;;;;12.92;100.00;101769.13;7380073;19;20443;-44
2023/06/11 04:51:58;;;;;;;29.73;15.10;;;;;;;13.05;100.00;101768.91;7408356;19;20403;-44
2023/06/11 04:54:28;;;;;;;24.63;11.20;;;;;;;13.17;100.00;101759.94;7381348;19;20418;-44
2023/06/11 04:56:57;;;;;;;21.13;9.53;;;;;;;13.22;100.00;101761.91;7405923;19;20435;-44
2023/06/11 04:59:30;;;;;;;15.33;7.70;;;;;;;13.36;100.00;101754.78;7381372;19;20988;-43
2023/06/11 05:02:01;;;;;;;16.90;5.47;;;;;;;13.40;100.00;101745.44;7405746;19;20769;-44
2023/06/11 05:04:31;;;;;;;13.63;4.30;;;;;;;13.37;100.00;101738.41;7379486;19;20399;-43
2023/06/11 05:07:05;;;;;;;10.30;5.80;;;;;;;13.59;100.00;101742.00;7405388;19;20404;-44
2023/06/11 05:09:35;;;;;;;11.77;4.27;;;;;;;13.70;100.00;101729.50;7380397;19;20462;-44
2023/06/11 05:12:05;;;;;;;7.77;2.93;;;;;;;13.71;100.00;101710.56;7404341;19;20433;-43
2023/06/11 05:14:37;;;;;;;6.57;2.70;;;;;;;13.76;100.00;101711.63;7379383;19;20814;-44
2023/06/11 05:17:07;;;;;;;6.57;2.90;;;;;;;13.84;100.00;101688.63;7405463;19;20415;-43
2023/06/11 05:19:36;;;;;;;7.10;2.80;;;;;;;13.86;100.00;101681.81;7378862;19;20477;-44
2023/06/11 05:22:06;;;;;;;5.70;3.10;;;;;;;13.96;100.00;101675.31;7400880;19;20407;-44
2023/06/11 05:24:41;;;;;;;5.33;2.70;;;;;;;14.05;100.00;101654.03;7378679;19;20426;-44
2023/06/11 05:27:10;;;;;;;9.67;4.00;;;;;;;14.11;100.00;101643.03;7402792;19;20775;-43
2023/06/11 05:29:43;;;;;;;8.73;3.30;;;;;;;14.24;100.00;101627.16;7378105;19;20796;-44
2023/06/11 05:32:14;;;;;;;10.33;3.50;;;;;;;14.25;100.00;101623.72;7404502;19;20470;-44
2023/06/11 05:34:45;;;;;;;7.07;2.53;;;;;;;14.38;100.00;101619.03;7376448;19;20415;-43
2023/06/11 05:37:15;;;;;;;5.37;2.50;;;;;;;14.43;100.00;101605.41;7403497;19;20869;-44
2023/06/11 05:39:44;;;;;;;6.40;2.70;;;;;;;14.39;100.00;101593.13;7377011;19;20463;-46
2023/06/11 05:42:14;;;;;;;7.90;2.70;;;;;;;14.40;100.00;101581.91;7402816;19;20432;-44
2023/06/11 05:44:46;;;;;;;10.20;3.57;;;;;;;14.52;100.00;101584.09;7376479;19;20417;-44
2023/06/11 05:47:15;;;;;;;6.70;2.83;;;;;;;14.54;100.00;101573.78;7401871;19;20412;-44
2023/06/11 05:49:45;;;;;;;7.73;3.23;;;;;;;14.59;100.00;101580.03;7375316;19;20488;-44
2023/06/11 05:52:15;;;;;;;9.60;2.63;;;;;;;14.77;100.00;101573.81;7402272;19;20418;-43
2023/06/11 05:54:45;;;;;;;9.67;3.07;;;;;;;14.93;100.00;101570.06;7375728;19;20443;-44
2023/06/11 05:57:20;;;;;;;6.80;3.30;;;;;;;15.09;100.00;101568.91;7401562;19;20463;-46
2023/06/11 05:59:52;;;;;;;11.23;6.10;;;;;;;15.48;100.00;101575.47;7374401;19;20461;-44
2023/06/11 06:02:21;;;;;;;10.77;3.70;;;;;;;15.46;100.00;101548.50;7402110;19;20806;-44
2023/06/11 06:04:52;;;;;;;26.03;15.30;;;;;;;15.63;100.00;101542.16;7375866;19;20443;-44
2023/06/11 06:07:22;;;;;;;17.27;7.33;;;;;;;15.76;100.00;101533.06;7400890;19;20426;-44
2023/06/11 06:09:51;;;;;;;39.93;23.23;;;;;;;15.99;100.00;101530.34;7374319;19;20471;-44
2023/06/11 06:12:21;;;;;;;11.87;4.53;;;;;;;16.00;100.00;101518.22;7401193;19;20470;-43
2023/06/11 06:14:53;;;;;;;17.43;7.93;;;;;;;15.97;100.00;101518.09;7375279;19;20452;-44
2023/06/11 06:17:23;;;;;;;15.03;7.87;;;;;;;16.16;100.00;101516.97;7400028;19;20467;-44
2023/06/11 06:19:52;;;;;;;10.70;5.93;;;;;;;16.15;100.00;101517.81;7373827;19;20456;-43
2023/06/11 06:22:22;;;;;;;22.83;12.30;;;;;;;16.28;100.00;101522.56;7402626;19;20483;-43
2023/06/11 06:24:51;;;;;;;13.60;4.93;;;;;;;16.39;100.00;101527.19;7374331;19;20445;-43
2023/06/11 06:27:21;;;;;;;12.90;5.50;;;;;;;16.55;100.00;101524.22;7400621;19;20425;-44
2023/06/11 06:29:54;;;;;;;7.70;4.00;;;;;;;16.56;100.00;101525.97;7372173;19;20518;-44
2023/06/11 06:32:23;;;;;;;6.60;3.10;;;;;;;16.52;100.00;101534.56;7400941;19;20403;-44
2023/06/11 06:34:53;;;;;;;8.17;3.53;;;;;;;16.51;100.00;101532.75;7380607;19;20424;-44
2023/06/11 06:37:27;;;;;;;7.60;3.20;;;;;;;16.69;100.00;101544.56;7405425;19;20463;-44
2023/06/11 06:39:57;;;;;;;9.90;2.87;;;;;;;16.88;100.00;101554.66;7380459;19;20451;-44
2023/06/11 06:42:26;;;;;;;13.53;4.77;;;;;;;17.08;100.00;101566.56;7407155;19;20408;-44
2023/06/11 06:45:01;;;;;;;11.87;4.17;;;;;;;17.21;100.00;101571.25;7382815;19;20488;-44
2023/06/11 06:47:30;;;;;;;14.10;5.90;;;;;;;17.17;100.00;101586.78;7409160;19;20856;-47
2023/06/11 06:50:00;;;;;;;9.63;3.80;;;;;;;17.23;100.00;101593.03;7379917;19;20463;-44
2023/06/11 06:52:30;;;;;;;11.37;3.77;;;;;;;17.28;100.00;101606.22;7406292;19;20789;-44
2023/06/11 06:55:00;;;;;;;9.00;3.50;;;;;;;17.40;100.00;101601.31;7380316;19;20526;-44
2023/06/11 06:57:30;;;;;;;7.97;3.43;;;;;;;17.38;100.00;101623.88;7405528;19;20412;-44
2023/06/11 07:00:02;;;;;;;20.50;3.00;;;;;;;17.41;100.00;101608.31;7379550;19;20490;-42
2023/06/11 07:02:32;;;;;;;7.17;3.03;;;;;;;17.65;100.00;101616.75;7407083;19;20411;-45
2023/06/11 07:05:01;;;;;;;10.20;3.07;;;;;;;17.78;100.00;101636.19;7380664;19;20447;-45
2023/06/11 07:07:31;;;;;;;7.90;3.10;;;;;;;17.72;100.00;101644.75;7409241;19;20411;-42
2023/06/11 07:10:00;;;;;;;6.83;2.87;;;;;;;17.75;100.00;101650.03;7379837;19;20537;-44
2023/06/11 07:12:30;;;;;;;7.03;2.60;;;;;;;17.75;100.00;101649.19;7399797;19;20424;-44
2023/06/11 07:15:02;;;;;;;8.83;3.50;;;;;;;17.80;100.00;101661.50;7379708;19;20439;-45
2023/06/11 07:17:32;;;;;;;12.30;3.23;;;;;;;17.84;100.00;101680.72;7405169;19;20780;-43
2023/06/11 07:20:01;;;;;;;6.10;2.80;;;;;;;18.00;100.00;101675.91;7377219;19;20455;-44
2023/06/11 07:22:31;;;;;;;6.17;2.60;;;;;;;18.13;100.00;101682.34;7407078;19;20419;-45
2023/06/11 07:25:01;;;;;;;7.50;3.07;;;;;;;18.19;100.00;101695.56;7382161;19;20422;-44
2023/06/11 07:27:31;;;;;;;9.73;3.20;;;;;;;18.26;100.00;101710.56;7405697;19;20419;-44
2023/06/11 07:30:03;;;;;;;6.53;3.40;;;;;;;18.27;100.00;101701.00;7379245;19;20463;-44
2023/06/11 07:32:33;;;;;;;9.50;2.70;;;;;;;18.38;100.00;101702.13;7406122;19;20812;-44
2023/06/11 07:35:02;;;;;;;8.83;2.97;;;;;;;18.52;100.00;101701.59;7379807;19;20439;-43
2023/06/11 07:37:33;;;;;;;6.70;3.17;;;;;;;18.65;100.00;101732.38;7407113;19;20432;-44
2023/06/11 07:40:04;;;;;;;7.30;3.03;;;;;;;18.68;100.00;101727.25;7377794;19;20450;-44
2023/06/11 07:42:33;;;;;;;10.00;3.90;;;;;;;18.74;100.00;101737.84;7404977;19;20415;-44
2023/06/11 07:45:06;;;;;;;7.73;3.47;;;;;;;18.80;100.00;101755.38;7378416;19;20450;-44
2023/06/11 07:47:36;;;;;;;6.67;2.70;;;;;;;18.90;100.00;101756.50;7404489;19;20958;-45
2023/06/11 07:50:07;;;;;;;8.70;3.40;;;;;;;18.98;100.00;101764.50;7380649;19;20451;-44
2023/06/11 07:52:37;;;;;;;11.83;4.27;;;;;;;19.06;100.00;101785.66;7405914;19;20419;-45
2023/06/11 07:55:08;;;;;;;6.17;2.90;;;;;;;19.12;100.00;101793.63;7378533;19;20515;-44
2023/06/11 07:57:37;;;;;;;9.13;3.30;;;;;;;19.17;100.00;101794.59;7405319;19;20414;-43
2023/06/11 08:00:12;;;;;;;7.03;2.90;;;;;;;19.27;100.00;101798.31;7378174;19;20451;-44
2023/06/11 08:02:43;;;;;;;6.77;2.80;;;;;;;19.39;100.00;101800.31;7403784;19;20404;-44
2023/06/11 08:05:17;;;;;;;9.83;3.33;;;;;;;19.52;100.00;101812.81;7379429;19;20422;-44
2023/06/11 08:07:47;;;;;;;8.27;3.00;;;;;;;19.63;100.00;101822.63;7404217;19;20395;-44
2023/06/11 08:10:17;;;;;;;11.77;2.90;;;;;;;19.73;100.00;101818.47;7377486;19;20462;-43
2023/06/11 08:12:47;;;;;;;8.00;3.67;;;;;;;19.82;100.00;101829.13;7405743;19;20399;-44
2023/06/11 08:15:19;;;;;;;8.30;3.70;;;;;;;19.84;100.00;101815.22;7378813;19;20533;-43
2023/06/11 08:17:49;;;;;;;7.43;3.20;;;;;;;19.93;100.00;101816.25;7403740;19;20391;-44
2023/06/11 08:20:18;;;;;;;5.77;2.80;;;;;;;19.99;100.00;101821.63;7377645;19;20451;-44
2023/06/11 08:22:48;;;;;;;8.70;4.20;;;;;;;20.13;100.00;101832.38;7404771;19;20504;-43
2023/06/11 08:25:18;;;;;;;15.70;3.50;;;;;;;20.20;100.00;101841.25;7375225;19;20526;-44
2023/06/11 08:27:47;;;;;;;9.63;3.13;;;;;;;20.31;100.00;101851.94;7403165;19;20812;-45
2023/06/11 08:30:19;;;;;;;5.67;2.97;;;;;;;20.27;100.00;101852.72;7377285;19;20451;-44
2023/06/11 08:32:49;;;;;;;10.07;3.47;;;;;;;20.39;100.00;101857.31;7403436;19;20407;-44
2023/06/11 08:35:20;;;;;;;8.67;3.00;;;;;;;20.56;100.00;101855.84;7378970;19;20500;-44
2023/06/11 08:37:50;;;;;;;7.73;3.10;;;;;;;20.64;100.00;101864.75;7403864;19;20420;-44
2023/06/11 08:40:20;;;;;;;11.47;3.70;;;;;;;20.72;100.00;101864.00;7378263;19;20454;-44
2023/06/11 08:42:50;;;;;;;8.10;3.87;;;;;;;20.70;100.00;101873.56;7404654;19;20400;-45
2023/06/11 08:45:22;;;;;;;8.50;3.53;;;;;;;20.83;100.00;101874.66;7378918;19;20471;-44
2023/06/11 08:47:52;;;;;;;15.00;2.87;;;;;;;21.04;100.00;101867.16;7403736;19;20404;-44
2023/06/11 08:50:23;;;;;;;14.37;3.23;;;;;;;21.15;100.00;101859.50;7376749;19;20524;-45
2023/06/11 08:52:53;;;;;;;11.53;4.47;;;;;;;21.25;100.00;101870.09;7404306;19;20419;-44
2023/06/11 08:55:23;;;;;;;14.20;5.20;;;;;;;21.35;100.00;101879.00;7375859;19;20458;-45
2023/06/11 08:57:53;;;;;;;6.90;2.97;;;;;;;21.49;100.00;101877.47;7405801;19;20413;-45
2023/06/11 09:00:25;;;;;;;16.07;4.10;;;;;;;21.43;100.00;101880.88;7378228;19;20480;-43
2023/06/11 09:02:55;;;;;;;8.50;2.97;;;;;;;21.65;100.00;101883.81;7404324;19;20415;-45
2023/06/11 09:05:25;;;;;;;8.07;3.40;;;;;;;21.77;100.00;101887.47;7380098;19;20454;-44
2023/06/11 09:07:55;;;;;;;17.40;3.40;;;;;;;21.86;100.00;101898.13;7403303;19;20817;-44
2023/06/11 09:10:25;;;;;;;9.10;3.50;;;;;;;22.06;100.00;101889.59;7376730;19;20521;-47
2023/06/11 09:12:56;;;;;;;18.87;11.20;;;;;;;22.15;100.00;101894.94;7404195;19;20424;-44
2023/06/11 09:15:29;;;;;;;14.33;3.83;;;;;;;22.18;100.00;101895.00;7375885;19;20468;-43
2023/06/11 09:17:58;;;;;;;11.43;4.57;;;;;;;22.23;100.00;101893.31;7401798;19;20404;-43
2023/06/11 09:20:29;;;;;;;15.67;8.13;;;;;;;22.31;100.00;101900.38;7375317;19;20451;-44
2023/06/11 09:22:58;;;;;;;6.30;2.90;;;;;;;22.34;100.00;101874.13;7405640;19;20785;-44
2023/06/11 09:25:33;;;;;;;10.83;4.70;;;;;;;22.37;100.00;101876.78;7377374;19;20945;-44
2023/06/11 09:28:08;;;;;;;12.17;4.53;;;;;;;22.41;100.00;101885.59;7402144;19;20468;-44
2023/06/11 09:30:40;;;;;;;9.63;4.63;;;;;;;22.44;100.00;101881.25;7376335;19;20450;-44
2023/06/11 09:33:17;;;;;;;16.90;7.37;;;;;;;22.60;100.00;101891.97;7403990;19;20411;-44
2023/06/11 09:35:47;;;;;;;8.90;3.50;;;;;;;22.84;100.00;101891.28;7376116;19;20461;-44
2023/06/11 09:38:18;;;;;;;12.57;4.33;;;;;;;22.87;100.00;101893.06;7393990;19;20474;-43
2023/06/11 09:40:48;;;;;;;9.83;3.80;;;;;;;22.84;100.00;101885.13;7375604;19;20447;-44
2023/06/11 09:43:20;;;;;;;8.37;4.00;;;;;;;23.00;100.00;101892.28;7402147;19;20420;-44
2023/06/11 09:45:55;;;;;;;35.23;14.40;;;;;;;23.31;100.00;101896.91;7377050;19;20459;-43
2023/06/11 09:48:26;;;;;;;10.63;3.67;;;;;;;23.26;100.00;101867.91;7401431;19;20438;-44
2023/06/11 09:50:56;;;;;;;55.13;27.40;;;;;;;23.44;100.00;101866.28;7375595;19;20797;-45
2023/06/11 09:53:26;;;;;;;35.13;19.60;;;;;;;23.52;100.00;101887.41;7403820;19;20403;-44
2023/06/11 09:55:56;;;;;;;63.33;32.07;;;;;;;23.46;100.00;101872.44;7378019;19;20452;-44
2023/06/11 09:58:41;;;;;;;9.83;4.20;;;;;;;23.55;100.00;101868.97;7377476;19;21030;-44
2023/06/11 10:01:14;;;;;;;45.67;23.50;;;;;;;23.54;100.00;101865.44;7400307;19;20464;-44
2023/06/11 10:03:43;;;;;;;16.33;8.67;;;;;;;23.49;100.00;101832.09;7379372;19;20404;-44
2023/06/11 10:06:18;;;;;;;10.90;5.63;;;;;;;23.65;100.00;101819.88;7399523;19;20414;-43
2023/06/11 10:08:50;;;;;;;11.30;6.20;;;;;;;23.94;100.00;101834.91;7375766;19;20428;-43
2023/06/11 10:11:23;;;;;;;46.60;23.80;;;;;;;24.16;98.71;101819.16;7400315;19;20515;-43
2023/06/11 10:14:00;;;;;;;35.40;16.70;;;;;;;24.46;98.20;101817.44;7376429;19;20479;-43
2023/06/11 10:16:34;;;;;;;17.33;8.00;;;;;;;24.65;95.49;101792.81;7401057;19;20407;-43
2023/06/11 10:19:08;;;;;;;38.93;18.20;;;;;;;24.59;93.84;101765.53;7375440;19;20416;-43
2023/06/11 10:21:44;;;;;;;8.50;3.90;;;;;;;24.72;91.74;101750.59;7401901;19;20431;-43
2023/06/11 10:24:23;;;;;;;39.30;20.60;;;;;;;24.54;90.08;101731.28;7378149;19;20426;-42
2023/06/11 10:27:07;;;;;;;27.97;11.93;;;;;;;24.71;87.66;101707.50;7401687;19;20411;-42
2023/06/11 10:29:40;;;;;;;10.40;4.50;;;;;;;24.93;86.16;101702.22;7376371;19;20455;-43
2023/06/11 10:32:20;;;;;;;9.40;4.27;;;;;;;24.98;84.33;101683.72;7400907;19;20447;-43
2023/06/11 10:34:50;;;;;;;13.60;6.97;;;;;;;24.91;84.56;101691.66;7375494;19;20784;-43
2023/06/11 10:37:28;;;;;;;7.33;3.60;;;;;;;24.99;84.59;101680.19;7400958;19;20431;-45
2023/06/11 10:39:58;;;;;;;36.83;19.40;;;;;;;25.24;84.38;101685.34;7376794;19;20458;-44
2023/06/11 10:42:30;;;;;;;11.70;4.40;;;;;;;25.15;82.98;101671.31;7402567;19;20447;-44
2023/06/11 10:45:00;;;;;;;12.00;6.67;;;;;;;25.21;83.34;101676.56;7376575;19;20461;-44
2023/06/11 10:47:43;;;;;;;7.30;3.67;;;;;;;25.47;83.14;101682.56;7401859;19;21090;-43
2023/06/11 10:50:14;;;;;;;20.40;11.17;;;;;;;25.48;80.78;101663.22;7376028;19;20447;-44
2023/06/11 10:52:52;;;;;;;48.00;23.30;;;;;;;25.44;81.08;101662.34;7400936;19;20422;-44
2023/06/11 10:55:23;;;;;;;12.67;6.67;;;;;;;25.43;81.43;101671.16;7374926;19;20431;-44
2023/06/11 10:57:53;;;;;;;16.83;9.90;;;;;;;25.55;80.05;101664.09;7400497;19;20419;-47
2023/06/11 11:00:23;;;;;;;20.13;8.23;;;;;;;25.66;79.08;101656.06;7373295;19;20839;-44
2023/06/11 11:02:56;;;;;;;9.37;5.17;;;;;;;25.72;78.36;101643.72;7397301;19;20427;-45
2023/06/11 11:05:28;;;;;;;40.00;22.83;;;;;;;25.79;81.15;101673.59;7371304;19;20475;-44
2023/06/11 11:07:58;;;;;;;13.70;7.40;;;;;;;25.88;79.76;101654.13;7397550;19;20422;-45
2023/06/11 11:10:29;;;;;;;25.40;12.20;;;;;;;26.02;77.67;101632.88;7368746;19;21173;-42
2023/06/11 11:12:58;;;;;;;16.53;8.63;;;;;;;26.03;76.92;101634.63;7397733;19;20412;-40
2023/06/11 11:15:28;;;;;;;8.90;4.07;;;;;;;25.82;76.71;101633.03;7371826;19;20514;-41
2023/06/11 11:18:00;;;;;;;10.17;6.20;;;;;;;25.90;77.99;101649.75;7396998;19;20411;-42
2023/06/11 11:20:33;;;;;;;10.80;6.70;;;;;;;25.89;74.83;101617.13;7377149;19;20506;-42
2023/06/11 11:23:04;;;;;;;7.60;4.33;;;;;;;25.91;73.98;101606.56;7411006;19;20414;-42
2023/06/11 11:25:34;;;;;;;7.40;3.93;;;;;;;25.81;73.63;101608.41;7380933;19;21098;-42
2023/06/11 11:28:03;;;;;;;18.13;10.27;;;;;;;25.73;73.46;101603.19;7403776;19;20767;-42
2023/06/11 11:30:33;;;;;;;13.07;7.23;;;;;;;25.59;74.77;101605.06;7378933;19;20453;-42